Weather observations for the past three days for
Crown Point International Airport
Metric (Imperial)
Date Time (ast) Wind (kph) Vis. (km) Weather Sky Cond. Temperature (ºC) Relative Humidity Wind Chill (°C) Heat Index (°C) Pressure Precipitation (cm)
Air Dwpt 6 hour altimeter (cm) sea level (mb) 1 hr 3 hr 6 hr
Max. Min.
07 16:00 E 13 0.00 Showers in Vicinity SCT018 29 24 74% 34 0 0.0
07 15:00 E 15 0.00 Partly Cloudy SCT020 30 23 66% 34 0 0.0
07 14:00 NE 9 0.00 Partly Cloudy SCT018 29 23 70% 33 0 0.0
07 13:00 NE 13 0.00 Showers in Vicinity SCT018 29 24 74% 34 0 0.0
07 12:00 NE 11 0.00 Showers in Vicinity SCT018 30 23 66% 34 0 0.0
07 11:00 NE 15 0.00 Partly Cloudy SCT018 30 23 66% 34 0 0.0
07 10:00 NE 13 0.00 Partly Cloudy SCT018 30 24 70% 35 0 0.0
07 09:00 E 17 0.00 A Few Clouds FEW020 30 24 70% 35 0 0.0
07 08:00 E 20 0.00 A Few Clouds FEW018 29 24 74% 34 0 0.0
07 07:00 E 11 0.00 A Few Clouds FEW016 27 23 79% 30 0 0.0
07 06:00 NE 6 0.00 A Few Clouds FEW016 26 23 84% 28 0 0.0
07 05:00 NE 9 0.00 A Few Clouds FEW016 26 23 84% 28 0 0.0
07 04:00 NE 6 0.00 A Few Clouds FEW016 26 23 84% 28 0 0.0
07 03:00 N 7 0.00 A Few Clouds FEW016 26 23 84% 28 0 0.0
07 02:00 NE 6 0.00 A Few Clouds FEW016 26 23 84% 28 0 0.0
07 01:00 NE 6 0.00 A Few Clouds FEW016 26 23 84% 28 0 0.0
07 00:00 NE 9 0.00 A Few Clouds FEW016 26 23 84% 28 0 0.0
06 23:00 NE 7 0.00 A Few Clouds FEW016 26 23 84% 28 0 0.0
06 22:00 NE 7 0.00 A Few Clouds FEW016 27 23 79% 30 0 0.0
06 21:00 E 15 0.00 A Few Clouds FEW016 28 23 74% 31 0 0.0
06 20:00 E 20 0.00 A Few Clouds FEW016 28 23 74% 31 0 0.0
06 19:00 E 20 0.00 A Few Clouds FEW018 28 24 79% 32 0 0.0
06 18:00 E 20 0.00 Showers in Vicinity FEW018 29 24 74% 34 0 0.0
06 17:00 E 24 0.00 A Few Clouds FEW018 29 24 74% 34 0 0.0
06 16:00 E 24 0.00 A Few Clouds FEW018 30 24 70% 35 0 0.0
06 15:00 E 20 0.00 A Few Clouds FEW020 30 23 66% 34 0 0.0
06 14:00 E 19 0.00 A Few Clouds FEW020 30 24 70% 35 0 0.0
06 13:00 E 24 0.00 A Few Clouds FEW020 31 24 66% 37 0 0.0
06 12:00 E 26 0.00 A Few Clouds FEW020 30 24 70% 35 0 0.0
06 11:00 E 26 0.00 Partly Cloudy SCT020 31 24 66% 37 0 0.0
06 10:00 E 24 0.00 A Few Clouds FEW020 30 24 70% 35 0 0.0
06 09:00 E 24 0.00 A Few Clouds FEW018 30 23 66% 34 0 0.0
06 08:00 E 24 0.00 A Few Clouds FEW018 29 23 70% 33 0 0.0
06 07:00 E 26 0.00 A Few Clouds FEW016 28 23 74% 31 0 0.0
06 06:00 NE 7 0.00 A Few Clouds FEW016 26 23 84% 28 0 0.0
06 05:00 NE 9 0.00 A Few Clouds FEW016 27 23 79% 30 0 0.0
06 04:00 E 13 0.00 A Few Clouds FEW016 27 23 79% 30 0 0.0
06 03:00 E 22 0.00 A Few Clouds FEW016 27 23 79% 30 0 0.0
06 02:00 E 26 0.00 A Few Clouds FEW016 27 23 79% 30 0 0.0
06 01:00 E 24 0.00 A Few Clouds FEW016 27 23 79% 30 0 0.0
06 00:00 E 26 0.00 A Few Clouds FEW016 28 24 79% 32 0 0.0
05 23:00 E 24 0.00 A Few Clouds FEW016 28 24 79% 32 0 0.0
05 22:00 E 22 0.00 A Few Clouds FEW016 28 24 79% 32 0 0.0
05 21:00 E 24 0.00 A Few Clouds FEW016 28 24 79% 32 0 0.0
05 20:00 E 28 0.00 A Few Clouds FEW016 28 24 79% 32 0 0.0
05 19:00 E 24 0.00 Showers in Vicinity SCT016 28 24 79% 32 0 0.0
05 18:00 E 28 0.00 A Few Clouds FEW018 28 24 79% 32 0 0.0
05 17:00 E 26 0.00 A Few Clouds FEW018 29 24 74% 34 0 0.0
05 16:00 E 26 0.00 A Few Clouds FEW018 30 24 70% 35 0 0.0
05 15:00 E 30 0.00 A Few Clouds FEW018 30 24 70% 35 0 0.0
05 14:01 E 26 0.00 Showers in Vicinity FEW018 29 25 79% 35 0 0.0
05 14:00 E 26 0.00 Showers in Vicinity FEW018 29 25 79% 35 0 0.0
05 13:00 E 24 0.00 Mostly Cloudy FEW018 BKN040 30 24 70% 35 0 0.0
05 12:00 E 24 0.00 Showers in Vicinity FEW016 SCT038 31 24 66% 37 0 0.0
05 11:00 E 35 0.00 A Few Clouds and Breezy FEW018 31 24 66% 37 0 0.0
05 10:00 E 26 0.00 Partly Cloudy FEW018 SCT040 29 24 74% 34 0 0.0
05 09:00 E 26 0.00 A Few Clouds FEW018 30 24 70% 35 0 0.0
05 08:00 E 24 0.00 A Few Clouds FEW018 29 24 74% 34 0 0.0
05 07:00 NE 9 0.00 Showers in Vicinity FEW018 27 24 84% 30 0 0.0
05 06:00 NE 7 0.00 Showers in Vicinity FEW018 25 23 89% 26 0 0.0
05 05:00 NE 6 0.00 A Few Clouds FEW018 25 23 89% 26 0 0.0
05 04:00 NE 7 0.00 A Few Clouds FEW018 26 23 84% 28 0 0.0
05 03:00 E 9 0.00 A Few Clouds FEW018 27 23 79% 30 0 0.0
05 02:00 E 13 0.00 A Few Clouds FEW018 27 23 79% 30 0 0.0
05 01:00 E 11 0.00 A Few Clouds FEW018 27 23 79% 30 0 0.0
05 00:00 NE 11 0.00 A Few Clouds FEW018 27 23 79% 30 0 0.0
04 23:00 E 20 0.00 A Few Clouds FEW018 27 23 79% 30 0 0.0
04 22:00 E 11 0.00 A Few Clouds FEW018 27 23 79% 30 0 0.0
04 21:00 E 11 0.00 A Few Clouds FEW018 27 23 79% 30 0 0.0
04 20:00 E 11 0.00 A Few Clouds FEW020 27 23 79% 30 0 0.0
04 19:00 E 13 0.00 A Few Clouds FEW020 27 23 79% 30 0 0.0
04 18:00 E 15 0.00 A Few Clouds FEW020 28 23 74% 31 0 0.0
04 17:00 E 17 0.00 A Few Clouds FEW020 29 23 70% 33 0 0.0
Date Time (ast) Wind (kph) Vis. (km) Weather Sky Cond. Air Dwpt Max. Min. Relative Humidity Wind Chill (°C) Heat Index (°C) altimeter (cm) sea level (mb) 1 hr 3 hr 6 hr
6 hour
Temperature (ºC) Pressure Precipitation (cm)